sensor_id;sensor_type;location;lat;lon;timestamp;temperature;humidity
78571;SHT31;67861;51.966;5.672;2023-07-20T00:02:00;21.0;62.5
78571;SHT31;67861;51.966;5.672;2023-07-20T00:04:29;21.0;62.7
78571;SHT31;67861;51.966;5.672;2023-07-20T00:06:57;21.0;63.3
78571;SHT31;67861;51.966;5.672;2023-07-20T00:09:27;21.0;62.8
78571;SHT31;67861;51.966;5.672;2023-07-20T00:11:56;21.0;63.1
78571;SHT31;67861;51.966;5.672;2023-07-20T00:14:26;20.9;63.6
78571;SHT31;67861;51.966;5.672;2023-07-20T00:16:55;20.9;63.6
78571;SHT31;67861;51.966;5.672;2023-07-20T00:19:26;20.9;63.7
78571;SHT31;67861;51.966;5.672;2023-07-20T00:21:56;20.9;63.4
78571;SHT31;67861;51.966;5.672;2023-07-20T00:24:25;20.8;64.0
78571;SHT31;67861;51.966;5.672;2023-07-20T00:26:54;20.8;63.6
78571;SHT31;67861;51.966;5.672;2023-07-20T00:29:22;20.8;63.5
78571;SHT31;67861;51.966;5.672;2023-07-20T00:31:51;20.8;63.3
78571;SHT31;67861;51.966;5.672;2023-07-20T00:34:19;20.8;63.5
78571;SHT31;67861;51.966;5.672;2023-07-20T00:36:48;20.7;63.6
78571;SHT31;67861;51.966;5.672;2023-07-20T00:39:17;20.7;63.9
78571;SHT31;67861;51.966;5.672;2023-07-20T00:41:47;20.7;64.4
78571;SHT31;67861;51.966;5.672;2023-07-20T00:44:16;20.7;63.7
78571;SHT31;67861;51.966;5.672;2023-07-20T00:46:44;20.6;63.9
78571;SHT31;67861;51.966;5.672;2023-07-20T00:49:14;20.6;64.2
78571;SHT31;67861;51.966;5.672;2023-07-20T00:51:45;20.6;63.7
78571;SHT31;67861;51.966;5.672;2023-07-20T00:54:14;20.6;63.5
78571;SHT31;67861;51.966;5.672;2023-07-20T00:56:44;20.6;63.5
78571;SHT31;67861;51.966;5.672;2023-07-20T00:59:13;20.5;64.1
78571;SHT31;67861;51.966;5.672;2023-07-20T01:01:42;20.5;63.3
78571;SHT31;67861;51.966;5.672;2023-07-20T01:04:11;20.5;63.6
78571;SHT31;67861;51.966;5.672;2023-07-20T01:06:47;20.5;63.8
78571;SHT31;67861;51.966;5.672;2023-07-20T01:09:19;20.5;63.6
78571;SHT31;67861;51.966;5.672;2023-07-20T01:11:57;20.4;64.0
78571;SHT31;67861;51.966;5.672;2023-07-20T01:14:27;20.4;63.6
78571;SHT31;67861;51.966;5.672;2023-07-20T01:16:56;20.4;63.7
78571;SHT31;67861;51.966;5.672;2023-07-20T01:19:24;20.4;63.7
78571;SHT31;67861;51.966;5.672;2023-07-20T01:21:59;20.4;64.0
78571;SHT31;67861;51.966;5.672;2023-07-20T01:25:00;20.3;63.7
78571;SHT31;67861;51.966;5.672;2023-07-20T01:28:09;20.3;63.6
78571;SHT31;67861;51.966;5.672;2023-07-20T01:30:48;20.3;63.5
78571;SHT31;67861;51.966;5.672;2023-07-20T01:33:23;20.3;63.8
78571;SHT31;67861;51.966;5.672;2023-07-20T01:35:56;20.2;63.9
78571;SHT31;67861;51.966;5.672;2023-07-20T01:38:26;20.2;63.9
78571;SHT31;67861;51.966;5.672;2023-07-20T01:40:56;20.2;63.6
78571;SHT31;67861;51.966;5.672;2023-07-20T01:43:25;20.1;63.6
78571;SHT31;67861;51.966;5.672;2023-07-20T01:45:54;20.1;64.0
78571;SHT31;67861;51.966;5.672;2023-07-20T01:48:23;20.1;64.0
78571;SHT31;67861;51.966;5.672;2023-07-20T01:50:51;20.1;63.6
78571;SHT31;67861;51.966;5.672;2023-07-20T01:53:20;20.1;63.8
78571;SHT31;67861;51.966;5.672;2023-07-20T01:55:51;20.0;63.8
78571;SHT31;67861;51.966;5.672;2023-07-20T01:58:20;20.0;63.6
78571;SHT31;67861;51.966;5.672;2023-07-20T02:00:49;20.0;63.8
78571;SHT31;67861;51.966;5.672;2023-07-20T02:03:17;20.0;63.4
78571;SHT31;67861;51.966;5.672;2023-07-20T02:05:48;20.0;63.3
78571;SHT31;67861;51.966;5.672;2023-07-20T02:08:17;20.0;63.3
78571;SHT31;67861;51.966;5.672;2023-07-20T02:10:47;20.0;63.5
78571;SHT31;67861;51.966;5.672;2023-07-20T02:13:16;20.0;63.2
78571;SHT31;67861;51.966;5.672;2023-07-20T02:15:44;19.9;63.2
78571;SHT31;67861;51.966;5.672;2023-07-20T02:18:13;19.9;63.0
78571;SHT31;67861;51.966;5.672;2023-07-20T02:20:42;19.9;62.5
78571;SHT31;67861;51.966;5.672;2023-07-20T02:23:11;19.9;62.3
78571;SHT31;67861;51.966;5.672;2023-07-20T02:25:40;19.9;62.4
78571;SHT31;67861;51.966;5.672;2023-07-20T02:28:12;19.9;62.4
78571;SHT31;67861;51.966;5.672;2023-07-20T02:30:41;19.8;62.2
78571;SHT31;67861;51.966;5.672;2023-07-20T02:33:11;19.8;62.5
78571;SHT31;67861;51.966;5.672;2023-07-20T02:35:40;19.8;63.1
78571;SHT31;67861;51.966;5.672;2023-07-20T02:38:09;19.7;62.6
78571;SHT31;67861;51.966;5.672;2023-07-20T02:40:37;19.7;62.6
78571;SHT31;67861;51.966;5.672;2023-07-20T02:43:06;19.7;62.6
78571;SHT31;67861;51.966;5.672;2023-07-20T02:45:39;19.7;62.1
78571;SHT31;67861;51.966;5.672;2023-07-20T02:48:08;19.6;61.9
78571;SHT31;67861;51.966;5.672;2023-07-20T02:50:36;19.6;62.0
78571;SHT31;67861;51.966;5.672;2023-07-20T02:53:07;19.6;62.5
78571;SHT31;67861;51.966;5.672;2023-07-20T02:55:35;19.5;62.0
78571;SHT31;67861;51.966;5.672;2023-07-20T02:58:04;19.5;62.2
78571;SHT31;67861;51.966;5.672;2023-07-20T03:00:32;19.5;62.5
78571;SHT31;67861;51.966;5.672;2023-07-20T03:03:01;19.5;62.7
78571;SHT31;67861;51.966;5.672;2023-07-20T03:05:30;19.4;62.5
78571;SHT31;67861;51.966;5.672;2023-07-20T03:07:58;19.4;62.7
78571;SHT31;67861;51.966;5.672;2023-07-20T03:10:29;19.4;62.7
78571;SHT31;67861;51.966;5.672;2023-07-20T03:12:57;19.4;63.2
78571;SHT31;67861;51.966;5.672;2023-07-20T03:15:26;19.3;63.3
78571;SHT31;67861;51.966;5.672;2023-07-20T03:17:55;19.3;62.9
78571;SHT31;67861;51.966;5.672;2023-07-20T03:20:24;19.3;62.9
78571;SHT31;67861;51.966;5.672;2023-07-20T03:22:53;19.3;63.6
78571;SHT31;67861;51.966;5.672;2023-07-20T03:25:23;19.3;62.9
78571;SHT31;67861;51.966;5.672;2023-07-20T03:27:52;19.2;63.0
78571;SHT31;67861;51.966;5.672;2023-07-20T03:30:21;19.2;62.7
78571;SHT31;67861;51.966;5.672;2023-07-20T03:32:49;19.2;62.8
78571;SHT31;67861;51.966;5.672;2023-07-20T03:35:20;19.2;62.8
78571;SHT31;67861;51.966;5.672;2023-07-20T03:37:49;19.1;62.7
78571;SHT31;67861;51.966;5.672;2023-07-20T03:40:20;19.1;62.9
78571;SHT31;67861;51.966;5.672;2023-07-20T03:42:49;19.1;63.0
78571;SHT31;67861;51.966;5.672;2023-07-20T03:45:17;19.1;62.7
78571;SHT31;67861;51.966;5.672;2023-07-20T03:47:46;19.0;63.0
78571;SHT31;67861;51.966;5.672;2023-07-20T03:50:15;19.0;63.7
78571;SHT31;67861;51.966;5.672;2023-07-20T03:52:43;19.0;63.0
78571;SHT31;67861;51.966;5.672;2023-07-20T03:55:12;19.0;63.0
78571;SHT31;67861;51.966;5.672;2023-07-20T03:57:41;19.0;63.4
78571;SHT31;67861;51.966;5.672;2023-07-20T04:00:10;18.9;63.3
78571;SHT31;67861;51.966;5.672;2023-07-20T04:02:41;18.9;63.8
78571;SHT31;67861;51.966;5.672;2023-07-20T04:05:10;18.9;64.1
78571;SHT31;67861;51.966;5.672;2023-07-20T04:07:38;18.9;64.0
78571;SHT31;67861;51.966;5.672;2023-07-20T04:10:07;18.8;63.8
78571;SHT31;67861;51.966;5.672;2023-07-20T04:12:36;18.8;64.1
78571;SHT31;67861;51.966;5.672;2023-07-20T04:15:05;18.8;64.2
78571;SHT31;67861;51.966;5.672;2023-07-20T04:17:34;18.8;65.4
78571;SHT31;67861;51.966;5.672;2023-07-20T04:20:03;18.8;64.4
78571;SHT31;67861;51.966;5.672;2023-07-20T04:22:33;18.8;64.8
78571;SHT31;67861;51.966;5.672;2023-07-20T04:25:01;18.8;65.4
78571;SHT31;67861;51.966;5.672;2023-07-20T04:27:30;18.8;65.4
78571;SHT31;67861;51.966;5.672;2023-07-20T04:30:01;18.8;65.2
78571;SHT31;67861;51.966;5.672;2023-07-20T04:32:30;18.7;65.7
78571;SHT31;67861;51.966;5.672;2023-07-20T04:35:00;18.7;65.9
78571;SHT31;67861;51.966;5.672;2023-07-20T04:37:31;18.7;66.5
78571;SHT31;67861;51.966;5.672;2023-07-20T04:39:59;18.7;66.4
78571;SHT31;67861;51.966;5.672;2023-07-20T04:42:28;18.7;66.8
78571;SHT31;67861;51.966;5.672;2023-07-20T04:44:56;18.7;67.0
78571;SHT31;67861;51.966;5.672;2023-07-20T04:47:25;18.7;67.0
78571;SHT31;67861;51.966;5.672;2023-07-20T04:49:53;18.7;67.1
78571;SHT31;67861;51.966;5.672;2023-07-20T04:52:22;18.7;67.1
78571;SHT31;67861;51.966;5.672;2023-07-20T04:54:51;18.7;67.7
78571;SHT31;67861;51.966;5.672;2023-07-20T04:57:19;18.7;67.9
78571;SHT31;67861;51.966;5.672;2023-07-20T04:59:48;18.7;68.1
78571;SHT31;67861;51.966;5.672;2023-07-20T05:02:16;18.8;68.2
78571;SHT31;67861;51.966;5.672;2023-07-20T05:04:45;18.8;67.9
78571;SHT31;67861;51.966;5.672;2023-07-20T05:07:16;18.8;67.9
78571;SHT31;67861;51.966;5.672;2023-07-20T05:09:44;18.8;68.1
78571;SHT31;67861;51.966;5.672;2023-07-20T05:12:13;18.8;67.6
78571;SHT31;67861;51.966;5.672;2023-07-20T05:14:43;18.9;67.9
78571;SHT31;67861;51.966;5.672;2023-07-20T05:17:11;18.9;68.2
78571;SHT31;67861;51.966;5.672;2023-07-20T05:19:40;18.9;68.2
78571;SHT31;67861;51.966;5.672;2023-07-20T05:22:09;18.9;68.4
78571;SHT31;67861;51.966;5.672;2023-07-20T05:24:38;19.0;68.2
78571;SHT31;67861;51.966;5.672;2023-07-20T05:27:07;19.0;68.1
78571;SHT31;67861;51.966;5.672;2023-07-20T05:29:35;19.1;67.9
78571;SHT31;67861;51.966;5.672;2023-07-20T05:32:04;19.1;67.7
78571;SHT31;67861;51.966;5.672;2023-07-20T05:34:34;19.2;66.8
78571;SHT31;67861;51.966;5.672;2023-07-20T05:37:02;19.2;66.7
78571;SHT31;67861;51.966;5.672;2023-07-20T05:39:32;19.2;67.0
78571;SHT31;67861;51.966;5.672;2023-07-20T05:42:00;19.3;66.6
78571;SHT31;67861;51.966;5.672;2023-07-20T05:44:29;19.3;66.7
78571;SHT31;67861;51.966;5.672;2023-07-20T05:46:57;19.3;66.5
78571;SHT31;67861;51.966;5.672;2023-07-20T05:49:27;19.3;66.6
78571;SHT31;67861;51.966;5.672;2023-07-20T05:51:56;19.3;66.3
78571;SHT31;67861;51.966;5.672;2023-07-20T05:54:25;19.4;66.5
78571;SHT31;67861;51.966;5.672;2023-07-20T05:56:54;19.4;66.6
78571;SHT31;67861;51.966;5.672;2023-07-20T05:59:26;19.4;66.3
78571;SHT31;67861;51.966;5.672;2023-07-20T06:01:55;19.4;67.1
78571;SHT31;67861;51.966;5.672;2023-07-20T06:04:24;19.4;67.6
78571;SHT31;67861;51.966;5.672;2023-07-20T06:06:53;19.4;67.8
78571;SHT31;67861;51.966;5.672;2023-07-20T06:09:23;19.4;67.3
78571;SHT31;67861;51.966;5.672;2023-07-20T06:11:54;19.4;66.6
78571;SHT31;67861;51.966;5.672;2023-07-20T06:14:23;19.4;66.3
78571;SHT31;67861;51.966;5.672;2023-07-20T06:16:51;19.4;66.5
78571;SHT31;67861;51.966;5.672;2023-07-20T06:19:20;19.4;66.2
78571;SHT31;67861;51.966;5.672;2023-07-20T06:21:49;19.4;66.3
78571;SHT31;67861;51.966;5.672;2023-07-20T06:24:18;19.5;66.4
78571;SHT31;67861;51.966;5.672;2023-07-20T06:26:48;19.5;66.0
78571;SHT31;67861;51.966;5.672;2023-07-20T06:29:19;19.5;65.5
78571;SHT31;67861;51.966;5.672;2023-07-20T06:31:48;19.5;65.6
78571;SHT31;67861;51.966;5.672;2023-07-20T06:34:16;19.5;66.1
78571;SHT31;67861;51.966;5.672;2023-07-20T06:36:46;19.6;66.1
78571;SHT31;67861;51.966;5.672;2023-07-20T06:39:14;19.6;66.0
78571;SHT31;67861;51.966;5.672;2023-07-20T06:41:44;19.6;65.9
78571;SHT31;67861;51.966;5.672;2023-07-20T06:44:13;19.7;67.0
78571;SHT31;67861;51.966;5.672;2023-07-20T06:46:42;19.7;66.0
78571;SHT31;67861;51.966;5.672;2023-07-20T06:49:25;19.8;63.2
78571;SHT31;67861;51.966;5.672;2023-07-20T06:51:54;19.8;62.6
78571;SHT31;67861;51.966;5.672;2023-07-20T06:54:23;19.8;63.7
78571;SHT31;67861;51.966;5.672;2023-07-20T06:56:51;19.9;65.2
78571;SHT31;67861;51.966;5.672;2023-07-20T06:59:22;19.9;63.5
78571;SHT31;67861;51.966;5.672;2023-07-20T07:01:50;19.9;64.2
78571;SHT31;67861;51.966;5.672;2023-07-20T07:04:19;20.0;62.9
78571;SHT31;67861;51.966;5.672;2023-07-20T07:06:48;20.0;61.3
78571;SHT31;67861;51.966;5.672;2023-07-20T07:09:16;20.1;62.4
78571;SHT31;67861;51.966;5.672;2023-07-20T07:11:45;20.1;63.2
78571;SHT31;67861;51.966;5.672;2023-07-20T07:14:13;20.2;63.3
78571;SHT31;67861;51.966;5.672;2023-07-20T07:16:42;20.2;59.9
78571;SHT31;67861;51.966;5.672;2023-07-20T07:19:10;20.2;59.4
78571;SHT31;67861;51.966;5.672;2023-07-20T07:21:39;20.3;58.3
78571;SHT31;67861;51.966;5.672;2023-07-20T07:24:08;20.3;58.8
78571;SHT31;67861;51.966;5.672;2023-07-20T07:26:37;20.3;59.1
78571;SHT31;67861;51.966;5.672;2023-07-20T07:29:06;20.2;60.1
78571;SHT31;67861;51.966;5.672;2023-07-20T07:31:36;20.2;58.6
78571;SHT31;67861;51.966;5.672;2023-07-20T07:34:05;20.2;59.8
78571;SHT31;67861;51.966;5.672;2023-07-20T07:36:33;20.2;60.5
78571;SHT31;67861;51.966;5.672;2023-07-20T07:39:02;20.3;61.0
78571;SHT31;67861;51.966;5.672;2023-07-20T07:41:31;20.3;61.2
78571;SHT31;67861;51.966;5.672;2023-07-20T07:43:59;20.3;59.0
78571;SHT31;67861;51.966;5.672;2023-07-20T07:46:28;20.4;59.1
78571;SHT31;67861;51.966;5.672;2023-07-20T07:48:56;20.4;58.7
78571;SHT31;67861;51.966;5.672;2023-07-20T07:51:25;20.5;59.4
78571;SHT31;67861;51.966;5.672;2023-07-20T07:53:54;20.5;58.7
78571;SHT31;67861;51.966;5.672;2023-07-20T07:56:23;20.6;59.7
78571;SHT31;67861;51.966;5.672;2023-07-20T07:58:51;20.6;56.3
78571;SHT31;67861;51.966;5.672;2023-07-20T08:01:20;20.7;54.4
78571;SHT31;67861;51.966;5.672;2023-07-20T08:03:49;20.7;56.1
78571;SHT31;67861;51.966;5.672;2023-07-20T08:06:17;20.8;55.3
78571;SHT31;67861;51.966;5.672;2023-07-20T08:08:46;20.8;55.3
78571;SHT31;67861;51.966;5.672;2023-07-20T08:11:14;20.8;54.1
78571;SHT31;67861;51.966;5.672;2023-07-20T08:13:44;20.9;54.2
78571;SHT31;67861;51.966;5.672;2023-07-20T08:16:12;20.9;54.4
78571;SHT31;67861;51.966;5.672;2023-07-20T08:18:41;20.9;56.8
78571;SHT31;67861;51.966;5.672;2023-07-20T08:21:10;21.0;55.8
78571;SHT31;67861;51.966;5.672;2023-07-20T08:23:40;21.0;55.0
78571;SHT31;67861;51.966;5.672;2023-07-20T08:26:09;21.1;54.2
78571;SHT31;67861;51.966;5.672;2023-07-20T08:28:37;21.2;56.5
78571;SHT31;67861;51.966;5.672;2023-07-20T08:31:07;21.2;53.2
78571;SHT31;67861;51.966;5.672;2023-07-20T08:33:35;21.3;53.0
78571;SHT31;67861;51.966;5.672;2023-07-20T08:36:04;21.3;53.8
78571;SHT31;67861;51.966;5.672;2023-07-20T08:38:34;21.4;53.8
78571;SHT31;67861;51.966;5.672;2023-07-20T08:41:02;21.5;52.8
78571;SHT31;67861;51.966;5.672;2023-07-20T08:43:31;21.5;54.5
78571;SHT31;67861;51.966;5.672;2023-07-20T08:46:02;21.6;54.0
78571;SHT31;67861;51.966;5.672;2023-07-20T08:48:33;21.8;54.9
78571;SHT31;67861;51.966;5.672;2023-07-20T08:51:04;21.9;56.2
78571;SHT31;67861;51.966;5.672;2023-07-20T08:53:34;22.0;53.3
78571;SHT31;67861;51.966;5.672;2023-07-20T08:56:04;22.2;53.3
78571;SHT31;67861;51.966;5.672;2023-07-20T08:58:34;22.3;53.0
78571;SHT31;67861;51.966;5.672;2023-07-20T09:01:03;22.4;51.7
78571;SHT31;67861;51.966;5.672;2023-07-20T09:03:34;22.5;52.4
78571;SHT31;67861;51.966;5.672;2023-07-20T09:06:05;22.6;52.7
78571;SHT31;67861;51.966;5.672;2023-07-20T09:08:39;22.7;49.7
78571;SHT31;67861;51.966;5.672;2023-07-20T09:11:12;22.8;48.8
78571;SHT31;67861;51.966;5.672;2023-07-20T09:13:42;22.8;50.3
78571;SHT31;67861;51.966;5.672;2023-07-20T09:16:13;22.9;47.9
78571;SHT31;67861;51.966;5.672;2023-07-20T09:18:42;23.0;47.9
78571;SHT31;67861;51.966;5.672;2023-07-20T09:21:10;23.0;49.5
78571;SHT31;67861;51.966;5.672;2023-07-20T09:23:39;23.1;50.0
78571;SHT31;67861;51.966;5.672;2023-07-20T09:26:12;23.2;48.3
78571;SHT31;67861;51.966;5.672;2023-07-20T09:28:48;23.3;50.5
78571;SHT31;67861;51.966;5.672;2023-07-20T09:31:18;23.4;49.3
78571;SHT31;67861;51.966;5.672;2023-07-20T09:33:49;23.5;47.7
78571;SHT31;67861;51.966;5.672;2023-07-20T09:36:17;23.6;48.1
78571;SHT31;67861;51.966;5.672;2023-07-20T09:38:46;23.7;46.4
78571;SHT31;67861;51.966;5.672;2023-07-20T09:41:15;23.7;46.5
78571;SHT31;67861;51.966;5.672;2023-07-20T09:43:45;23.8;47.0
78571;SHT31;67861;51.966;5.672;2023-07-20T09:46:14;23.9;46.9
78571;SHT31;67861;51.966;5.672;2023-07-20T09:48:53;23.9;46.8
78571;SHT31;67861;51.966;5.672;2023-07-20T09:51:23;24.0;47.0
78571;SHT31;67861;51.966;5.672;2023-07-20T09:53:53;24.0;47.1
78571;SHT31;67861;51.966;5.672;2023-07-20T09:56:23;24.1;46.7
78571;SHT31;67861;51.966;5.672;2023-07-20T09:58:53;24.2;46.3
78571;SHT31;67861;51.966;5.672;2023-07-20T10:01:22;24.3;46.4
78571;SHT31;67861;51.966;5.672;2023-07-20T10:03:53;24.5;45.7
78571;SHT31;67861;51.966;5.672;2023-07-20T10:06:24;24.6;44.6
78571;SHT31;67861;51.966;5.672;2023-07-20T10:08:56;24.7;45.1
78571;SHT31;67861;51.966;5.672;2023-07-20T10:11:30;24.8;44.4
78571;SHT31;67861;51.966;5.672;2023-07-20T10:14:03;24.9;44.1
78571;SHT31;67861;51.966;5.672;2023-07-20T10:16:39;25.0;43.0
78571;SHT31;67861;51.966;5.672;2023-07-20T10:19:19;25.1;44.0
78571;SHT31;67861;51.966;5.672;2023-07-20T10:22:00;25.3;44.6
78571;SHT31;67861;51.966;5.672;2023-07-20T10:24:31;25.4;43.4
78571;SHT31;67861;51.966;5.672;2023-07-20T10:27:00;25.5;43.2
78571;SHT31;67861;51.966;5.672;2023-07-20T10:29:30;25.6;43.0
78571;SHT31;67861;51.966;5.672;2023-07-20T10:32:00;25.7;42.6
78571;SHT31;67861;51.966;5.672;2023-07-20T10:34:29;25.8;43.0
78571;SHT31;67861;51.966;5.672;2023-07-20T10:36:59;25.9;43.7
78571;SHT31;67861;51.966;5.672;2023-07-20T10:39:28;26.0;43.2
78571;SHT31;67861;51.966;5.672;2023-07-20T10:42:03;26.1;41.6
78571;SHT31;67861;51.966;5.672;2023-07-20T10:44:32;26.2;41.5
78571;SHT31;67861;51.966;5.672;2023-07-20T10:47:01;26.3;42.2
78571;SHT31;67861;51.966;5.672;2023-07-20T10:49:33;26.4;42.1
78571;SHT31;67861;51.966;5.672;2023-07-20T10:52:04;26.5;40.8
78571;SHT31;67861;51.966;5.672;2023-07-20T10:54:50;26.5;41.2
78571;SHT31;67861;51.966;5.672;2023-07-20T10:57:37;26.6;40.8
78571;SHT31;67861;51.966;5.672;2023-07-20T11:00:10;26.6;41.5
78571;SHT31;67861;51.966;5.672;2023-07-20T11:02:44;26.6;40.0
78571;SHT31;67861;51.966;5.672;2023-07-20T11:05:35;26.7;41.1
78571;SHT31;67861;51.966;5.672;2023-07-20T11:08:10;26.7;40.7
78571;SHT31;67861;51.966;5.672;2023-07-20T11:10:39;26.7;38.2
78571;SHT31;67861;51.966;5.672;2023-07-20T11:13:21;26.7;40.5
78571;SHT31;67861;51.966;5.672;2023-07-20T11:16:12;26.7;41.7
78571;SHT31;67861;51.966;5.672;2023-07-20T11:18:41;26.7;41.5
78571;SHT31;67861;51.966;5.672;2023-07-20T11:21:11;26.8;41.2
78571;SHT31;67861;51.966;5.672;2023-07-20T11:23:41;26.8;37.9
78571;SHT31;67861;51.966;5.672;2023-07-20T11:26:13;26.9;40.1
78571;SHT31;67861;51.966;5.672;2023-07-20T11:28:42;26.9;41.2
78571;SHT31;67861;51.966;5.672;2023-07-20T11:31:13;27.0;40.0
78571;SHT31;67861;51.966;5.672;2023-07-20T11:33:42;27.0;38.9
78571;SHT31;67861;51.966;5.672;2023-07-20T11:36:11;27.1;38.9
78571;SHT31;67861;51.966;5.672;2023-07-20T11:38:42;27.2;40.5
78571;SHT31;67861;51.966;5.672;2023-07-20T11:41:12;27.2;40.8
78571;SHT31;67861;51.966;5.672;2023-07-20T11:43:42;27.3;40.4
78571;SHT31;67861;51.966;5.672;2023-07-20T11:46:13;27.3;40.0
78571;SHT31;67861;51.966;5.672;2023-07-20T11:48:42;27.3;39.8
78571;SHT31;67861;51.966;5.672;2023-07-20T11:51:15;27.4;39.3
78571;SHT31;67861;51.966;5.672;2023-07-20T11:53:45;27.4;38.8
78571;SHT31;67861;51.966;5.672;2023-07-20T11:56:15;27.4;39.1
78571;SHT31;67861;51.966;5.672;2023-07-20T11:58:44;27.4;39.0
78571;SHT31;67861;51.966;5.672;2023-07-20T12:01:14;27.5;39.3
78571;SHT31;67861;51.966;5.672;2023-07-20T12:03:43;27.5;37.2
78571;SHT31;67861;51.966;5.672;2023-07-20T12:06:15;27.5;37.7
78571;SHT31;67861;51.966;5.672;2023-07-20T12:08:44;27.6;37.7
78571;SHT31;67861;51.966;5.672;2023-07-20T12:11:12;27.7;38.0
78571;SHT31;67861;51.966;5.672;2023-07-20T12:13:43;27.8;37.9
78571;SHT31;67861;51.966;5.672;2023-07-20T12:16:14;27.9;37.7
78571;SHT31;67861;51.966;5.672;2023-07-20T12:18:44;28.0;37.7
78571;SHT31;67861;51.966;5.672;2023-07-20T12:21:12;28.0;37.2
78571;SHT31;67861;51.966;5.672;2023-07-20T12:23:42;28.1;36.1
78571;SHT31;67861;51.966;5.672;2023-07-20T12:26:10;28.3;36.0
78571;SHT31;67861;51.966;5.672;2023-07-20T12:28:42;28.3;34.6
78571;SHT31;67861;51.966;5.672;2023-07-20T12:31:10;28.4;34.8
78571;SHT31;67861;51.966;5.672;2023-07-20T12:33:39;28.5;36.1
78571;SHT31;67861;51.966;5.672;2023-07-20T12:36:08;28.5;35.1
78571;SHT31;67861;51.966;5.672;2023-07-20T12:38:37;28.6;35.5
78571;SHT31;67861;51.966;5.672;2023-07-20T12:41:10;28.6;34.7
78571;SHT31;67861;51.966;5.672;2023-07-20T12:43:41;28.7;35.8
78571;SHT31;67861;51.966;5.672;2023-07-20T12:46:11;28.7;36.0
78571;SHT31;67861;51.966;5.672;2023-07-20T12:48:41;28.8;35.8
78571;SHT31;67861;51.966;5.672;2023-07-20T12:51:10;28.8;35.5
78571;SHT31;67861;51.966;5.672;2023-07-20T12:53:39;28.9;33.8
78571;SHT31;67861;51.966;5.672;2023-07-20T12:56:07;29.0;34.5
78571;SHT31;67861;51.966;5.672;2023-07-20T12:58:36;29.0;35.1
78571;SHT31;67861;51.966;5.672;2023-07-20T13:01:05;29.1;34.2
78571;SHT31;67861;51.966;5.672;2023-07-20T13:03:33;29.2;34.5
78571;SHT31;67861;51.966;5.672;2023-07-20T13:06:02;29.2;35.2
78571;SHT31;67861;51.966;5.672;2023-07-20T13:08:30;29.3;33.8
78571;SHT31;67861;51.966;5.672;2023-07-20T13:10:59;29.4;34.8
78571;SHT31;67861;51.966;5.672;2023-07-20T13:13:27;29.4;33.5
78571;SHT31;67861;51.966;5.672;2023-07-20T13:15:58;29.5;35.2
78571;SHT31;67861;51.966;5.672;2023-07-20T13:18:26;29.5;34.3
78571;SHT31;67861;51.966;5.672;2023-07-20T13:20:55;29.5;34.3
78571;SHT31;67861;51.966;5.672;2023-07-20T13:23:24;29.5;33.2
78571;SHT31;67861;51.966;5.672;2023-07-20T13:25:52;29.5;33.7
78571;SHT31;67861;51.966;5.672;2023-07-20T13:28:21;29.4;34.2
78571;SHT31;67861;51.966;5.672;2023-07-20T13:30:49;29.4;33.0
78571;SHT31;67861;51.966;5.672;2023-07-20T13:33:18;29.3;33.7
78571;SHT31;67861;51.966;5.672;2023-07-20T13:35:47;29.3;32.3
78571;SHT31;67861;51.966;5.672;2023-07-20T13:38:15;29.2;33.1
78571;SHT31;67861;51.966;5.672;2023-07-20T13:40:45;29.2;32.5
78571;SHT31;67861;51.966;5.672;2023-07-20T13:43:14;29.1;33.2
78571;SHT31;67861;51.966;5.672;2023-07-20T13:45:42;29.0;32.3
78571;SHT31;67861;51.966;5.672;2023-07-20T13:48:11;29.0;34.1
78571;SHT31;67861;51.966;5.672;2023-07-20T13:50:40;28.9;33.2
78571;SHT31;67861;51.966;5.672;2023-07-20T13:53:09;28.8;32.7
78571;SHT31;67861;51.966;5.672;2023-07-20T13:55:38;28.8;33.7
78571;SHT31;67861;51.966;5.672;2023-07-20T13:58:08;28.7;35.5
78571;SHT31;67861;51.966;5.672;2023-07-20T14:00:38;28.6;34.1
78571;SHT31;67861;51.966;5.672;2023-07-20T14:03:06;28.6;35.3
78571;SHT31;67861;51.966;5.672;2023-07-20T14:05:35;28.5;35.0
78571;SHT31;67861;51.966;5.672;2023-07-20T14:08:04;28.6;34.2
78571;SHT31;67861;51.966;5.672;2023-07-20T14:10:33;28.6;34.3
78571;SHT31;67861;51.966;5.672;2023-07-20T14:13:02;28.7;32.5
78571;SHT31;67861;51.966;5.672;2023-07-20T14:15:30;28.7;32.2
78571;SHT31;67861;51.966;5.672;2023-07-20T14:17:59;28.7;34.6
78571;SHT31;67861;51.966;5.672;2023-07-20T14:20:27;28.6;34.1
78571;SHT31;67861;51.966;5.672;2023-07-20T14:22:56;28.6;34.3
78571;SHT31;67861;51.966;5.672;2023-07-20T14:25:24;28.6;34.3
78571;SHT31;67861;51.966;5.672;2023-07-20T14:27:53;28.5;32.5
78571;SHT31;67861;51.966;5.672;2023-07-20T14:30:21;28.4;33.6
78571;SHT31;67861;51.966;5.672;2023-07-20T14:32:50;28.3;33.6
78571;SHT31;67861;51.966;5.672;2023-07-20T14:35:18;28.2;33.8
78571;SHT31;67861;51.966;5.672;2023-07-20T14:37:48;28.1;35.2
78571;SHT31;67861;51.966;5.672;2023-07-20T14:40:20;28.1;35.2
78571;SHT31;67861;51.966;5.672;2023-07-20T14:42:48;28.0;35.0
78571;SHT31;67861;51.966;5.672;2023-07-20T14:45:18;28.0;35.2
78571;SHT31;67861;51.966;5.672;2023-07-20T14:47:47;28.1;34.7
78571;SHT31;67861;51.966;5.672;2023-07-20T14:50:20;28.1;34.2
78571;SHT31;67861;51.966;5.672;2023-07-20T14:52:49;28.1;33.5
78571;SHT31;67861;51.966;5.672;2023-07-20T14:55:20;28.1;33.0
78571;SHT31;67861;51.966;5.672;2023-07-20T14:57:48;28.0;34.3
78571;SHT31;67861;51.966;5.672;2023-07-20T15:00:18;28.0;34.5
78571;SHT31;67861;51.966;5.672;2023-07-20T15:02:47;27.9;35.7
78571;SHT31;67861;51.966;5.672;2023-07-20T15:05:22;27.8;35.4
78571;SHT31;67861;51.966;5.672;2023-07-20T15:07:53;27.7;35.2
78571;SHT31;67861;51.966;5.672;2023-07-20T15:10:24;27.7;36.8
78571;SHT31;67861;51.966;5.672;2023-07-20T15:12:52;27.7;35.7
78571;SHT31;67861;51.966;5.672;2023-07-20T15:15:21;27.7;34.9
78571;SHT31;67861;51.966;5.672;2023-07-20T15:17:49;27.7;35.2
78571;SHT31;67861;51.966;5.672;2023-07-20T15:20:19;27.7;36.1
78571;SHT31;67861;51.966;5.672;2023-07-20T15:22:47;27.7;34.8
78571;SHT31;67861;51.966;5.672;2023-07-20T15:25:16;27.7;34.9
78571;SHT31;67861;51.966;5.672;2023-07-20T15:27:45;27.7;35.9
78571;SHT31;67861;51.966;5.672;2023-07-20T15:30:14;27.7;36.7
78571;SHT31;67861;51.966;5.672;2023-07-20T15:32:43;27.7;34.3
78571;SHT31;67861;51.966;5.672;2023-07-20T15:35:11;27.7;35.4
78571;SHT31;67861;51.966;5.672;2023-07-20T15:37:40;27.7;34.7
78571;SHT31;67861;51.966;5.672;2023-07-20T15:40:12;27.7;34.3
78571;SHT31;67861;51.966;5.672;2023-07-20T15:42:40;27.7;34.0
78571;SHT31;67861;51.966;5.672;2023-07-20T15:45:10;27.7;33.6
78571;SHT31;67861;51.966;5.672;2023-07-20T15:47:39;27.7;33.9
78571;SHT31;67861;51.966;5.672;2023-07-20T15:50:08;27.7;34.5
78571;SHT31;67861;51.966;5.672;2023-07-20T15:52:36;27.7;33.8
78571;SHT31;67861;51.966;5.672;2023-07-20T15:55:06;27.7;33.0
78571;SHT31;67861;51.966;5.672;2023-07-20T15:57:35;27.6;34.0
78571;SHT31;67861;51.966;5.672;2023-07-20T16:00:04;27.6;33.8
78571;SHT31;67861;51.966;5.672;2023-07-20T16:02:35;27.6;34.1
78571;SHT31;67861;51.966;5.672;2023-07-20T16:05:04;27.5;34.4
78571;SHT31;67861;51.966;5.672;2023-07-20T16:07:33;27.5;34.5
78571;SHT31;67861;51.966;5.672;2023-07-20T16:10:01;27.5;34.6
78571;SHT31;67861;51.966;5.672;2023-07-20T16:12:30;27.5;34.7
78571;SHT31;67861;51.966;5.672;2023-07-20T16:14:59;27.4;36.2
78571;SHT31;67861;51.966;5.672;2023-07-20T16:17:27;27.4;35.0
78571;SHT31;67861;51.966;5.672;2023-07-20T16:19:56;27.4;36.7